South Palm Beach, Florida
Current Conditions -  °F | °C
As of 9:53 AM on Sunday 21 Dec 2014 (Local Time) from KPBI Reporting Station
Scattered Clouds Scattered Clouds  
Wind Chill: 77°   Ceiling: Unl
Heat Index: 79°   Visibility: 10mi
Dew Point: 66°   Wind: 5mph
Humidity: 69%   Direction: 170°S
Pressure: 30.11"   Gusts: NA
Location:  26.6941°N, 80.0379°W
Report Text: KPBI 211453Z 17004KT 10SM SCT029 SCT050 SCT250 25/19 A3011 RMK AO2 SLP195 T02500189 51012
Loading
Personal Weather Stations






























Interactive Weather Map New forecast layout! Learn more

10-Day Weather Forecast

Advertisements
Track Severe Weather on mobile